createdAt,value
2019-04-30T00:00:42.942Z,0
2019-04-30T00:01:48.388Z,0
2019-04-30T00:03:00.790Z,0
2019-04-30T00:04:02.910Z,0
2019-04-30T00:05:09.924Z,0
2019-04-30T00:06:20.669Z,0
2019-04-30T00:07:22.790Z,0
2019-04-30T00:08:30.059Z,0
2019-04-30T00:09:40.863Z,0
2019-04-30T00:10:42.951Z,0
2019-04-30T00:11:50.525Z,0
2019-04-30T00:13:03.013Z,0
2019-04-30T00:14:21.894Z,0
2019-04-30T00:15:41.909Z,0
2019-04-30T00:16:45.096Z,0
2019-04-30T00:17:52.621Z,0
2019-04-30T00:19:03.570Z,0
2019-04-30T00:20:20.943Z,0
2019-04-30T00:21:24.885Z,0
2019-04-30T00:22:33.461Z,0
2019-04-30T00:23:51.982Z,0
2019-04-30T00:24:55.595Z,0
2019-04-30T00:26:04.953Z,0
2019-04-30T00:27:12.731Z,0
2019-04-30T00:28:16.988Z,0
2019-04-30T00:29:26.365Z,0
2019-04-30T00:30:34.715Z,0
2019-04-30T00:31:49.187Z,0
2019-04-30T00:32:51.259Z,0
2019-04-30T00:33:57.689Z,0
2019-04-30T00:35:04.080Z,0
2019-04-30T00:36:20.875Z,0
2019-04-30T00:37:22.967Z,0
2019-04-30T00:38:29.438Z,0
2019-04-30T00:39:39.617Z,0
2019-04-30T00:40:57.700Z,0
2019-04-30T00:42:11.838Z,0
2019-04-30T00:43:29.412Z,0
2019-04-30T00:44:31.480Z,0
2019-04-30T00:45:35.312Z,0
2019-04-30T00:46:48.794Z,0
2019-04-30T00:47:50.865Z,0
2019-04-30T00:48:53.329Z,0
2019-04-30T00:50:29.008Z,0
2019-04-30T00:51:39.054Z,0
2019-04-30T00:52:41.131Z,0
2019-04-30T00:53:43.761Z,0
2019-04-30T00:54:55.255Z,0
2019-04-30T00:56:01.826Z,0
2019-04-30T00:57:07.461Z,0
2019-04-30T00:58:09.692Z,0
2019-04-30T00:59:11.788Z,0
2019-04-30T01:00:17.652Z,0
2019-04-30T01:01:31.557Z,0
2019-04-30T01:02:35.615Z,0
2019-04-30T01:03:39.368Z,0
2019-04-30T01:04:51.294Z,0
2019-04-30T01:05:55.166Z,0
2019-04-30T01:07:00.156Z,0
2019-04-30T01:08:10.425Z,0
2019-04-30T01:09:12.509Z,0
2019-04-30T01:10:15.146Z,0
2019-04-30T01:11:29.863Z,0
2019-04-30T01:12:36.058Z,0
2019-04-30T01:13:53.905Z,0
2019-04-30T01:14:56.335Z,0
2019-04-30T01:16:15.235Z,0
2019-04-30T01:17:18.846Z,0
2019-04-30T01:18:23.494Z,0
2019-04-30T01:19:33.799Z,0
2019-04-30T01:20:36.336Z,0
2019-04-30T01:21:46.902Z,0
2019-04-30T01:22:52.601Z,0
2019-04-30T01:23:54.852Z,0
2019-04-30T01:25:01.217Z,0
2019-04-30T01:26:15.291Z,0
2019-04-30T01:27:18.776Z,0
2019-04-30T01:28:24.172Z,0
2019-04-30T01:29:30.987Z,0
2019-04-30T01:30:46.314Z,0
2019-04-30T01:31:50.966Z,0
2019-04-30T01:32:56.535Z,0
2019-04-30T01:34:05.016Z,0
2019-04-30T01:35:15.846Z,0
2019-04-30T01:36:20.419Z,0
2019-04-30T01:37:28.246Z,0
2019-04-30T01:38:34.633Z,0
2019-04-30T01:39:36.763Z,0
2019-04-30T01:40:42.738Z,0
2019-04-30T01:41:53.394Z,0
2019-04-30T01:42:55.452Z,0
2019-04-30T01:43:58.470Z,0
2019-04-30T01:45:00.656Z,0
2019-04-30T01:46:09.163Z,0
2019-04-30T01:47:16.250Z,0
2019-04-30T01:48:32.576Z,0
2019-04-30T01:49:41.928Z,0
2019-04-30T01:50:48.678Z,0
2019-04-30T01:51:52.803Z,0
2019-04-30T01:53:04.692Z,0
2019-04-30T01:54:18.614Z,0
2019-04-30T01:55:26.283Z,0
2019-04-30T01:56:30.678Z,0
2019-04-30T01:57:32.788Z,0
2019-04-30T01:58:34.857Z,0
2019-04-30T01:59:38.476Z,0
2019-04-30T02:00:40.886Z,0
2019-04-30T02:01:43.259Z,0
2019-04-30T02:02:45.373Z,0
2019-04-30T02:03:48.679Z,0
2019-04-30T02:04:50.837Z,0
2019-04-30T02:05:52.974Z,0
2019-04-30T02:06:55.043Z,0
2019-04-30T02:07:58.483Z,0
2019-04-30T02:09:00.963Z,0
2019-04-30T02:10:03.065Z,0
2019-04-30T02:11:05.197Z,0
2019-04-30T02:12:07.264Z,0
2019-04-30T02:13:11.267Z,0
2019-04-30T02:14:13.330Z,0
2019-04-30T02:15:15.451Z,0
2019-04-30T02:16:18.674Z,0
2019-04-30T02:17:23.246Z,0
2019-04-30T02:18:25.716Z,0
2019-04-30T02:19:28.726Z,0
2019-04-30T02:20:33.207Z,0
2019-04-30T02:21:35.270Z,0
2019-04-30T02:22:38.912Z,0
2019-04-30T02:23:41.148Z,0
2019-04-30T02:24:43.219Z,0
2019-04-30T02:25:45.299Z,0
2019-04-30T02:26:48.468Z,0
2019-04-30T02:27:51.101Z,0
2019-04-30T02:28:53.184Z,0
2019-04-30T02:29:55.327Z,0
2019-04-30T02:30:59.893Z,0
2019-04-30T02:32:03.179Z,0
2019-04-30T02:33:05.692Z,0
2019-04-30T02:34:10.890Z,0
2019-04-30T02:35:13.274Z,0
2019-04-30T02:36:15.320Z,0
2019-04-30T02:37:17.360Z,0
2019-04-30T02:38:23.224Z,0
2019-04-30T02:39:25.708Z,0
2019-04-30T02:40:30.144Z,0
2019-04-30T02:41:33.322Z,0
2019-04-30T02:42:35.463Z,0
2019-04-30T02:43:39.728Z,0
2019-04-30T02:44:42.488Z,0
2019-04-30T02:45:44.629Z,0
2019-04-30T02:46:46.933Z,0
2019-04-30T02:47:52.780Z,0
2019-04-30T02:48:54.873Z,0
2019-04-30T02:50:11.247Z,0
2019-04-30T02:51:24.270Z,0
2019-04-30T02:52:29.088Z,0
2019-04-30T02:53:31.447Z,0
2019-04-30T02:54:33.805Z,0
2019-04-30T02:55:35.920Z,0
2019-04-30T02:56:39.937Z,0
2019-04-30T02:57:42.223Z,0
2019-04-30T02:58:44.315Z,0
2019-04-30T02:59:46.411Z,0
2019-04-30T03:00:51.148Z,0
2019-04-30T03:01:53.538Z,0
2019-04-30T03:02:55.977Z,0
2019-04-30T03:03:59.762Z,0
2019-04-30T03:05:03.060Z,0
2019-04-30T03:06:05.195Z,4
2019-04-30T03:07:09.756Z,4
2019-04-30T03:08:11.924Z,0
2019-04-30T03:09:14.338Z,4
2019-04-30T03:10:19.537Z,4
2019-04-30T03:11:22.660Z,8
2019-04-30T03:12:25.008Z,4
2019-04-30T03:13:29.836Z,8
2019-04-30T03:14:32.143Z,8
2019-04-30T03:15:34.626Z,8
2019-04-30T03:16:36.950Z,12
2019-04-30T03:17:42.327Z,12
2019-04-30T03:18:44.766Z,16
2019-04-30T03:19:50.016Z,16
2019-04-30T03:20:52.234Z,16
2019-04-30T03:21:54.304Z,20
2019-04-30T03:22:56.385Z,24
2019-04-30T03:24:05.153Z,28
2019-04-30T03:25:09.407Z,36
2019-04-30T03:26:12.875Z,40
2019-04-30T03:27:15.538Z,48
2019-04-30T03:28:20.134Z,52
2019-04-30T03:29:23.819Z,56
2019-04-30T03:30:26.200Z,64
2019-04-30T03:31:34.045Z,76
2019-04-30T03:32:36.992Z,84
2019-04-30T03:34:03.461Z,104
2019-04-30T03:35:06.925Z,116
2019-04-30T03:36:14.871Z,128
2019-04-30T03:37:19.606Z,144
2019-04-30T03:38:22.191Z,164
2019-04-30T03:39:24.795Z,176
2019-04-30T03:40:30.031Z,200
2019-04-30T03:41:33.426Z,216
2019-04-30T03:42:35.682Z,244
2019-04-30T03:43:39.862Z,264
2019-04-30T03:44:42.210Z,292
2019-04-30T03:45:44.928Z,316
2019-04-30T03:46:49.693Z,340
2019-04-30T03:47:52.273Z,368
2019-04-30T03:48:54.703Z,400
2019-04-30T03:49:59.848Z,428
2019-04-30T03:51:02.827Z,460
2019-04-30T03:52:05.568Z,496
2019-04-30T03:53:13.770Z,532
2019-04-30T03:54:16.284Z,564
2019-04-30T03:55:24.650Z,604
2019-04-30T03:56:29.815Z,644
2019-04-30T03:57:32.088Z,684
2019-04-30T03:58:34.555Z,720
2019-04-30T03:59:39.472Z,760
2019-04-30T04:00:42.578Z,796
2019-04-30T04:01:51.822Z,844
2019-04-30T04:02:54.203Z,888
2019-04-30T04:03:56.592Z,924
2019-04-30T04:05:02.377Z,968
2019-04-30T04:06:05.491Z,1012
2019-04-30T04:07:10.502Z,1052
2019-04-30T04:08:12.991Z,1096
2019-04-30T04:09:15.677Z,1136
2019-04-30T04:10:23.552Z,1180
2019-04-30T04:11:26.352Z,1224
2019-04-30T04:12:31.798Z,1268
2019-04-30T04:13:33.822Z,1312
2019-04-30T04:14:36.244Z,1360
2019-04-30T04:15:41.692Z,1408
2019-04-30T04:16:43.823Z,1448
2019-04-30T04:17:45.915Z,1492
2019-04-30T04:18:50.029Z,1536
2019-04-30T04:19:52.634Z,1580
2019-04-30T04:21:07.354Z,1624
2019-04-30T04:22:22.474Z,1684
2019-04-30T04:23:25.411Z,1724
2019-04-30T04:24:30.074Z,1768
2019-04-30T04:25:32.843Z,1816
2019-04-30T04:26:35.343Z,1860
2019-04-30T04:27:39.240Z,1904
2019-04-30T04:28:43.454Z,1952
2019-04-30T04:29:46.041Z,2000
2019-04-30T04:30:51.849Z,2048
2019-04-30T04:31:54.716Z,2088
2019-04-30T04:32:59.667Z,2136
2019-04-30T04:34:02.106Z,2176
2019-04-30T04:35:04.498Z,2220
2019-04-30T04:36:09.040Z,2260
2019-04-30T04:37:11.328Z,2300
2019-04-30T04:38:13.733Z,2344
2019-04-30T04:39:15.878Z,2380
2019-04-30T04:40:21.346Z,2424
2019-04-30T04:41:23.509Z,2456
2019-04-30T04:42:29.908Z,2500
2019-04-30T04:43:35.479Z,2540
2019-04-30T04:44:39.876Z,2576
2019-04-30T04:45:43.726Z,2616
2019-04-30T04:46:46.100Z,2660
2019-04-30T04:47:51.904Z,2696
2019-04-30T04:48:54.034Z,2728
2019-04-30T04:49:56.419Z,2760
2019-04-30T04:51:02.318Z,2788
2019-04-30T04:52:04.476Z,2824
2019-04-30T04:53:08.685Z,2852
2019-04-30T04:54:13.650Z,2892
2019-04-30T04:55:16.109Z,2924
2019-04-30T04:56:23.770Z,2952
2019-04-30T04:57:26.226Z,2992
2019-04-30T04:58:31.912Z,3032
2019-04-30T04:59:34.030Z,3072
2019-04-30T05:00:39.064Z,3108
2019-04-30T05:01:41.603Z,3136
2019-04-30T05:02:43.688Z,3164
2019-04-30T05:03:48.812Z,3200
2019-04-30T05:04:51.543Z,3236
2019-04-30T05:05:54.003Z,3272
2019-04-30T05:06:56.095Z,3312
2019-04-30T05:08:01.084Z,3348
2019-04-30T05:09:03.820Z,3384
2019-04-30T05:10:05.978Z,3420
2019-04-30T05:11:10.533Z,3452
2019-04-30T05:12:13.044Z,3484
2019-04-30T05:13:15.125Z,3520
2019-04-30T05:14:18.936Z,3544
2019-04-30T05:15:21.410Z,3588
2019-04-30T05:16:23.448Z,3624
2019-04-30T05:17:25.559Z,3652
2019-04-30T05:18:29.095Z,3688
2019-04-30T05:19:31.357Z,3724
2019-04-30T05:20:33.394Z,3760
2019-04-30T05:21:42.499Z,3804
2019-04-30T05:22:48.736Z,3848
2019-04-30T05:23:51.366Z,3892
2019-04-30T05:24:53.762Z,3932
2019-04-30T05:25:55.855Z,3968
2019-04-30T05:27:00.382Z,4008
2019-04-30T05:28:02.462Z,4048
2019-04-30T05:29:04.863Z,4076
2019-04-30T05:30:07.235Z,4108
2019-04-30T05:31:14.329Z,4152
2019-04-30T05:32:16.398Z,4192
2019-04-30T05:33:20.773Z,4228
2019-04-30T05:34:22.873Z,4260
2019-04-30T05:35:24.974Z,4300
2019-04-30T05:36:29.057Z,4332
2019-04-30T05:37:31.313Z,4356
2019-04-30T05:38:33.389Z,4388
2019-04-30T05:39:35.520Z,4424
2019-04-30T05:40:39.403Z,4448
2019-04-30T05:41:44.445Z,4484
2019-04-30T05:42:46.523Z,4524
2019-04-30T05:43:50.950Z,4564
2019-04-30T05:44:53.058Z,4596
2019-04-30T05:45:55.120Z,4632
2019-04-30T05:46:58.957Z,4668
2019-04-30T05:48:01.235Z,4736
2019-04-30T05:49:03.366Z,4792
2019-04-30T05:50:05.448Z,4784
2019-04-30T05:51:09.887Z,4784
2019-04-30T05:52:12.025Z,4800
2019-04-30T05:53:14.100Z,4836
2019-04-30T05:54:16.534Z,4856
2019-04-30T05:55:20.624Z,4872
2019-04-30T05:56:22.749Z,4900
2019-04-30T05:57:24.823Z,4932
2019-04-30T05:58:26.891Z,4960
2019-04-30T05:59:32.394Z,4992
2019-04-30T06:00:34.846Z,5020
2019-04-30T06:01:39.354Z,5048
2019-04-30T06:02:51.882Z,5080
2019-04-30T06:03:54.023Z,5112
2019-04-30T06:04:56.104Z,5144
2019-04-30T06:06:00.579Z,5180
2019-04-30T06:07:02.733Z,5212
2019-04-30T06:08:04.795Z,5264
2019-04-30T06:09:12.993Z,5312
2019-04-30T06:10:35.608Z,5380
2019-04-30T06:11:39.311Z,5428
2019-04-30T06:12:41.831Z,5472
2019-04-30T06:13:43.908Z,5532
2019-04-30T06:14:49.142Z,5596
2019-04-30T06:15:53.848Z,5676
2019-04-30T06:16:55.925Z,5724
2019-04-30T06:18:02.783Z,5760
2019-04-30T06:19:15.859Z,5816
2019-04-30T06:20:20.501Z,5892
2019-04-30T06:21:23.244Z,5968
2019-04-30T06:22:25.385Z,6036
2019-04-30T06:23:29.311Z,6088
2019-04-30T06:24:31.568Z,6156
2019-04-30T06:25:52.675Z,6212
2019-04-30T06:27:14.924Z,6244
2019-04-30T06:28:17.001Z,6276
2019-04-30T06:29:21.054Z,6292
2019-04-30T06:30:23.142Z,6320
2019-04-30T06:31:32.097Z,6364
2019-04-30T06:32:44.701Z,6420
2019-04-30T06:33:48.626Z,6492
2019-04-30T06:34:50.815Z,6548
2019-04-30T06:35:52.917Z,6592
2019-04-30T06:36:56.896Z,6668
2019-04-30T06:38:01.212Z,6764
2019-04-30T06:39:03.280Z,6848
2019-04-30T06:40:05.743Z,6928
2019-04-30T06:41:08.665Z,6972
2019-04-30T06:42:12.900Z,7040
2019-04-30T06:43:15.196Z,7108
2019-04-30T06:44:17.692Z,7136
2019-04-30T06:45:21.750Z,7212
2019-04-30T06:46:23.841Z,7252
2019-04-30T06:47:32.677Z,7276
2019-04-30T06:48:35.714Z,7276
2019-04-30T06:49:39.230Z,7288
2019-04-30T06:50:41.424Z,7320
2019-04-30T06:51:43.567Z,7336
2019-04-30T06:52:54.782Z,7364
2019-04-30T06:54:04.180Z,7408
2019-04-30T06:55:06.269Z,7416
2019-04-30T06:56:10.727Z,7452
2019-04-30T06:57:12.869Z,7512
2019-04-30T06:58:15.493Z,7556
2019-04-30T06:59:17.996Z,7592
2019-04-30T07:00:32.720Z,7636
2019-04-30T07:01:38.838Z,7680
2019-04-30T07:02:41.002Z,7712
2019-04-30T07:03:43.085Z,7740
2019-04-30T07:04:45.230Z,7768
2019-04-30T07:05:48.748Z,7808
2019-04-30T07:06:51.024Z,7852
2019-04-30T07:08:00.726Z,7892
2019-04-30T07:09:14.171Z,7940
2019-04-30T07:10:17.036Z,7988
2019-04-30T07:11:22.649Z,8040
2019-04-30T07:12:27.742Z,8064
2019-04-30T07:13:35.851Z,8096
2019-04-30T07:14:40.029Z,8112
2019-04-30T07:15:43.928Z,8140
2019-04-30T07:16:46.003Z,8184
2019-04-30T07:17:49.122Z,8192
2019-04-30T07:18:51.340Z,8196
2019-04-30T07:19:56.680Z,8236
2019-04-30T07:21:01.667Z,8324
2019-04-30T07:22:03.804Z,8368
2019-04-30T07:23:05.891Z,8412
2019-04-30T07:24:10.376Z,8456
2019-04-30T07:25:12.745Z,8516
2019-04-30T07:26:19.582Z,8576
2019-04-30T07:27:26.657Z,8636
2019-04-30T07:28:44.347Z,8680
2019-04-30T07:29:57.162Z,8728
2019-04-30T07:31:11.215Z,8792
2019-04-30T07:32:19.087Z,8884
2019-04-30T07:33:21.848Z,8960
2019-04-30T07:34:24.385Z,9016
2019-04-30T07:35:26.484Z,9068
2019-04-30T07:36:45.144Z,9132
2019-04-30T07:38:26.057Z,9244
2019-04-30T07:39:33.288Z,9320
2019-04-30T07:40:35.557Z,9428
2019-04-30T07:41:40.046Z,9508
2019-04-30T07:42:44.953Z,9604
2019-04-30T07:43:49.337Z,9688
2019-04-30T07:44:51.627Z,9756
2019-04-30T07:45:53.721Z,9824
2019-04-30T07:46:55.857Z,9844
2019-04-30T07:48:00.821Z,9864
2019-04-30T07:49:02.902Z,9900
2019-04-30T07:50:05.305Z,9956
2019-04-30T07:51:13.299Z,10004
2019-04-30T07:52:24.947Z,10060
2019-04-30T07:53:58.993Z,10112
2019-04-30T07:55:01.178Z,10176
2019-04-30T07:56:20.937Z,10268
2019-04-30T07:57:43.543Z,10340
2019-04-30T07:58:45.659Z,10356
2019-04-30T07:59:49.834Z,10388
2019-04-30T08:00:56.099Z,10432
2019-04-30T08:02:09.903Z,10488
2019-04-30T08:03:16.743Z,10556
2019-04-30T08:04:24.139Z,10656
2019-04-30T08:05:26.239Z,12144
2019-04-30T08:06:31.652Z,34336
2019-04-30T08:07:34.655Z,68256
2019-04-30T08:08:40.538Z,80832
2019-04-30T08:09:43.799Z,82976
2019-04-30T08:10:46.000Z,82272
2019-04-30T08:11:52.186Z,80960
2019-04-30T08:12:54.553Z,81120
2019-04-30T08:14:16.038Z,78464
2019-04-30T08:15:26.119Z,76064
2019-04-30T08:16:28.733Z,76448
2019-04-30T08:17:30.987Z,76960
2019-04-30T08:18:33.071Z,76768
2019-04-30T08:19:35.226Z,78528
2019-04-30T08:20:39.132Z,81952
2019-04-30T08:21:41.384Z,83264
2019-04-30T08:22:43.465Z,81184
2019-04-30T08:23:45.554Z,82176
2019-04-30T08:24:49.112Z,80960
2019-04-30T08:25:51.350Z,80256
2019-04-30T08:26:53.770Z,79200
2019-04-30T08:27:55.845Z,78880
2019-04-30T08:28:59.738Z,77312
2019-04-30T08:30:02.010Z,75360
2019-04-30T08:31:04.381Z,73920
2019-04-30T08:32:08.846Z,73920
2019-04-30T08:33:11.126Z,74112
2019-04-30T08:34:13.266Z,76192
2019-04-30T08:35:15.352Z,76928
2019-04-30T08:36:19.450Z,77280
2019-04-30T08:37:21.793Z,78752
2019-04-30T08:38:24.564Z,80160
2019-04-30T08:39:26.714Z,79104
2019-04-30T08:40:33.436Z,81920
2019-04-30T08:41:35.993Z,84544
2019-04-30T08:42:40.280Z,88416
2019-04-30T08:43:42.445Z,89824
2019-04-30T08:44:44.603Z,88512
2019-04-30T08:45:48.715Z,83104
2019-04-30T08:46:51.299Z,80960
2019-04-30T08:47:53.393Z,80192
2019-04-30T08:48:55.504Z,82848
2019-04-30T08:50:02.513Z,85248
2019-04-30T08:51:06.508Z,84640
2019-04-30T08:52:16.378Z,85344
2019-04-30T08:53:29.114Z,84608
2019-04-30T08:54:36.373Z,84896
2019-04-30T08:55:40.356Z,88768
2019-04-30T08:56:42.933Z,89632
2019-04-30T08:57:45.031Z,86720
2019-04-30T08:58:49.050Z,84992
2019-04-30T08:59:51.899Z,86080
2019-04-30T09:00:54.652Z,89696
2019-04-30T09:01:58.671Z,89984
2019-04-30T09:03:21.518Z,95296
2019-04-30T09:04:23.615Z,93216
2019-04-30T09:05:28.024Z,97216
2019-04-30T09:06:32.865Z,99616
2019-04-30T09:07:35.327Z,97504
2019-04-30T09:08:37.418Z,96320
2019-04-30T09:09:44.418Z,95904
2019-04-30T09:10:48.842Z,96960
2019-04-30T09:11:55.306Z,101344
2019-04-30T09:13:00.281Z,105472
2019-04-30T09:14:02.387Z,102432
2019-04-30T09:15:04.825Z,100416
2019-04-30T09:16:06.899Z,103072
2019-04-30T09:17:11.183Z,105920
2019-04-30T09:18:13.565Z,107200
2019-04-30T09:19:15.686Z,105568
2019-04-30T09:20:19.393Z,101664
2019-04-30T09:21:21.545Z,101216
2019-04-30T09:22:23.699Z,99808
2019-04-30T09:23:25.780Z,103008
2019-04-30T09:24:53.840Z,105248
2019-04-30T09:25:56.261Z,103904
2019-04-30T09:27:00.553Z,102144
2019-04-30T09:28:04.481Z,104640
2019-04-30T09:29:09.081Z,105056
2019-04-30T09:30:11.459Z,103872
2019-04-30T09:31:13.564Z,103936
2019-04-30T09:32:15.726Z,104032
2019-04-30T09:33:20.886Z,106464
2019-04-30T09:34:23.340Z,108480
2019-04-30T09:35:25.430Z,106016
2019-04-30T09:36:29.195Z,102240
2019-04-30T09:37:32.158Z,102016
2019-04-30T09:38:34.269Z,102400
2019-04-30T09:39:36.418Z,101760
2019-04-30T09:40:41.725Z,102048
2019-04-30T09:41:43.998Z,102656
2019-04-30T09:42:46.096Z,101024
2019-04-30T09:43:50.197Z,98240
2019-04-30T09:44:54.290Z,95904
2019-04-30T09:46:01.442Z,98368
2019-04-30T09:47:27.173Z,98432
2019-04-30T09:48:31.476Z,98752
2019-04-30T09:49:33.652Z,96384
2019-04-30T09:50:36.257Z,97536
2019-04-30T09:51:42.124Z,101152
2019-04-30T09:52:45.476Z,96160
2019-04-30T09:53:56.495Z,94880
2019-04-30T09:55:12.876Z,93344
2019-04-30T09:56:15.638Z,91328
2019-04-30T09:57:19.267Z,93760
2019-04-30T09:58:21.526Z,96736
2019-04-30T09:59:23.688Z,95744
2019-04-30T10:00:25.782Z,97184
2019-04-30T10:01:27.888Z,101728
2019-04-30T10:02:30.238Z,103712
2019-04-30T10:03:33.127Z,102976
2019-04-30T10:04:40.835Z,101408
2019-04-30T10:05:46.405Z,97152
2019-04-30T10:06:50.608Z,95616
2019-04-30T10:07:53.080Z,96480
2019-04-30T10:08:55.232Z,99392
2019-04-30T10:09:59.036Z,102656
2019-04-30T10:11:01.259Z,104608
2019-04-30T10:12:03.434Z,105248
2019-04-30T10:13:05.843Z,102816
2019-04-30T10:14:08.275Z,99968
2019-04-30T10:15:10.363Z,93344
2019-04-30T10:16:12.462Z,93856
2019-04-30T10:17:14.618Z,89824
2019-04-30T10:18:16.965Z,95104
2019-04-30T10:19:19.229Z,99744
2019-04-30T10:20:21.426Z,101632
2019-04-30T10:21:23.896Z,101568
2019-04-30T10:22:26.048Z,96896
2019-04-30T10:23:28.162Z,96704
2019-04-30T10:24:33.956Z,100224
2019-04-30T10:25:36.149Z,99904
2019-04-30T10:26:38.248Z,99136
2019-04-30T10:27:40.413Z,98752
2019-04-30T10:28:43.047Z,100928
2019-04-30T10:29:45.162Z,98816
2019-04-30T10:30:47.616Z,101312
2019-04-30T10:31:49.705Z,101248
2019-04-30T10:32:51.816Z,96896
2019-04-30T10:33:53.919Z,95872
2019-04-30T10:34:56.071Z,93536
2019-04-30T10:35:59.452Z,95040
2019-04-30T10:37:02.879Z,94496
2019-04-30T10:38:05.128Z,93344
2019-04-30T10:39:07.280Z,98976
2019-04-30T10:40:10.268Z,100512
2019-04-30T10:41:12.860Z,99616
2019-04-30T10:42:15.050Z,100032
2019-04-30T10:43:17.155Z,97536
2019-04-30T10:44:21.471Z,96736
2019-04-30T10:45:23.595Z,96000
2019-04-30T10:46:25.681Z,99744
2019-04-30T10:47:29.351Z,100064
2019-04-30T10:48:34.702Z,98432
2019-04-30T10:49:38.884Z,97824
2019-04-30T10:50:41.871Z,98592
2019-04-30T10:51:44.017Z,99040
2019-04-30T10:52:46.136Z,95072
2019-04-30T10:53:50.878Z,95520
2019-04-30T10:54:53.392Z,98432
2019-04-30T10:55:55.493Z,97216
2019-04-30T10:56:59.085Z,96032
2019-04-30T10:58:01.321Z,95456
2019-04-30T10:59:03.995Z,93728
2019-04-30T11:00:07.788Z,91968
2019-04-30T11:01:12.348Z,89152
2019-04-30T11:02:14.551Z,92128
2019-04-30T11:03:20.472Z,93504
2019-04-30T11:04:25.168Z,96096
2019-04-30T11:05:29.194Z,100576
2019-04-30T11:06:31.459Z,100512
2019-04-30T11:07:33.614Z,100608
2019-04-30T11:08:35.725Z,100096
2019-04-30T11:09:39.311Z,96672
2019-04-30T11:10:41.517Z,94176
2019-04-30T11:11:43.687Z,94400
2019-04-30T11:12:45.783Z,93856
2019-04-30T11:13:48.177Z,95424
2019-04-30T11:14:50.321Z,95296
2019-04-30T11:15:52.425Z,96480
2019-04-30T11:16:54.672Z,98784
2019-04-30T11:17:59.428Z,96928
2019-04-30T11:19:02.850Z,93600
2019-04-30T11:20:06.734Z,91456
2019-04-30T11:21:13.091Z,90656
2019-04-30T11:22:16.624Z,92000
2019-04-30T11:23:21.318Z,95776
2019-04-30T11:24:35.519Z,99424
2019-04-30T11:26:05.614Z,98656
2019-04-30T11:27:12.181Z,96480
2019-04-30T11:28:19.150Z,95808
2019-04-30T11:29:25.030Z,96768
2019-04-30T11:30:32.717Z,96384
2019-04-30T11:31:36.564Z,94624
2019-04-30T11:32:40.816Z,96256
2019-04-30T11:33:44.361Z,96576
2019-04-30T11:34:48.286Z,97184
2019-04-30T11:36:02.008Z,97312
2019-04-30T11:37:06.890Z,96576
2019-04-30T11:38:08.993Z,98496
2019-04-30T11:39:11.153Z,98336
2019-04-30T11:40:13.274Z,97344
2019-04-30T11:41:15.374Z,97056
2019-04-30T11:42:34.911Z,97120
2019-04-30T11:43:37.019Z,97376
2019-04-30T11:44:41.033Z,100960
2019-04-30T11:45:43.450Z,105376
2019-04-30T11:46:45.588Z,104352
2019-04-30T11:47:53.397Z,107104
2019-04-30T11:48:56.170Z,101472
2019-04-30T11:50:00.724Z,98976
2019-04-30T11:51:03.790Z,95872
2019-04-30T11:52:05.961Z,94624
2019-04-30T11:53:22.558Z,98304
2019-04-30T11:54:32.461Z,103392
2019-04-30T11:55:34.582Z,101024
2019-04-30T11:56:38.335Z,96832
2019-04-30T11:57:40.511Z,96864
2019-04-30T11:58:42.610Z,98656
2019-04-30T11:59:44.990Z,96352
2019-04-30T12:00:49.323Z,93504
2019-04-30T12:01:51.609Z,92640
2019-04-30T12:02:53.916Z,86688
2019-04-30T12:03:56.058Z,90592
2019-04-30T12:04:58.159Z,89888
2019-04-30T12:06:00.552Z,88864
2019-04-30T12:07:02.702Z,94880
2019-04-30T12:08:04.819Z,95680
2019-04-30T12:09:06.874Z,94848
2019-04-30T12:10:11.396Z,95616
2019-04-30T12:11:15.303Z,89568
2019-04-30T12:12:18.913Z,86304
2019-04-30T12:13:21.141Z,86400
2019-04-30T12:14:23.249Z,86592
2019-04-30T12:15:25.337Z,88736
2019-04-30T12:16:28.524Z,90752
2019-04-30T12:17:30.760Z,90496
2019-04-30T12:18:32.853Z,89216
2019-04-30T12:19:35.662Z,88704
2019-04-30T12:20:40.243Z,90816
2019-04-30T12:21:42.350Z,92384
2019-04-30T12:22:44.502Z,90656
2019-04-30T12:23:46.617Z,87744
2019-04-30T12:24:50.042Z,89984
2019-04-30T12:26:09.130Z,90432
2019-04-30T12:27:11.414Z,89408
2019-04-30T12:28:13.497Z,87040
2019-04-30T12:29:15.989Z,89280
2019-04-30T12:30:20.725Z,89632
2019-04-30T12:31:23.191Z,89184
2019-04-30T12:32:25.345Z,84128
2019-04-30T12:33:27.478Z,83040
2019-04-30T12:34:29.631Z,82592
2019-04-30T12:35:32.139Z,82688
2019-04-30T12:36:34.250Z,81952
2019-04-30T12:37:36.781Z,80896
2019-04-30T12:38:40.962Z,81856
2019-04-30T12:39:43.410Z,80256
2019-04-30T12:40:45.774Z,81824
2019-04-30T12:41:48.867Z,81952
2019-04-30T12:42:51.333Z,81408
2019-04-30T12:43:53.429Z,79104
2019-04-30T12:44:55.613Z,78976
2019-04-30T12:46:03.150Z,79840
2019-04-30T12:47:09.502Z,84096
2019-04-30T12:48:11.768Z,86080
2019-04-30T12:49:13.871Z,85664
2019-04-30T12:50:16.269Z,82976
2019-04-30T12:51:20.880Z,80000
2019-04-30T12:52:23.027Z,79392
2019-04-30T12:53:25.150Z,78880
2019-04-30T12:54:27.622Z,78144
2019-04-30T12:55:30.070Z,77600
2019-04-30T12:56:32.169Z,78912
2019-04-30T12:57:34.342Z,76480
2019-04-30T12:58:36.440Z,76992
2019-04-30T12:59:38.535Z,73984
2019-04-30T13:00:40.702Z,73440
2019-04-30T13:01:42.795Z,72512
2019-04-30T13:02:44.973Z,72384
2019-04-30T13:03:56.575Z,73760
2019-04-30T13:05:03.312Z,76032
2019-04-30T13:06:06.287Z,77184
2019-04-30T13:07:15.605Z,77376
2019-04-30T13:08:25.640Z,78336
2019-04-30T13:09:32.907Z,76800
2019-04-30T13:10:41.918Z,76256
2019-04-30T13:11:50.206Z,76544
2019-04-30T13:12:56.767Z,75872
2019-04-30T13:14:03.030Z,79712
2019-04-30T13:15:12.007Z,79584
2019-04-30T13:16:14.127Z,79520
2019-04-30T13:17:16.298Z,78208
2019-04-30T13:18:19.459Z,76480
2019-04-30T13:19:21.657Z,73856
2019-04-30T13:20:24.285Z,72000
2019-04-30T13:21:28.439Z,69888
2019-04-30T13:22:30.718Z,69824
2019-04-30T13:23:32.851Z,70336
2019-04-30T13:24:35.039Z,67904
2019-04-30T13:25:48.871Z,66272
2019-04-30T13:26:53.912Z,66528
2019-04-30T13:27:56.017Z,68128
2019-04-30T13:28:58.149Z,70048
2019-04-30T13:30:00.309Z,62784
2019-04-30T13:31:02.413Z,67520
2019-04-30T13:32:04.535Z,67712
2019-04-30T13:33:06.640Z,68640
2019-04-30T13:34:11.224Z,68992
2019-04-30T13:35:13.390Z,70048
2019-04-30T13:36:15.435Z,63968
2019-04-30T13:37:19.167Z,70496
2019-04-30T13:38:21.565Z,74592
2019-04-30T13:39:23.666Z,74432
2019-04-30T13:40:30.685Z,72736
2019-04-30T13:41:32.924Z,71968
2019-04-30T13:42:35.416Z,69632
2019-04-30T13:43:38.591Z,69024
2019-04-30T13:44:42.244Z,69088
2019-04-30T13:45:44.341Z,71328
2019-04-30T13:46:46.457Z,74400
2019-04-30T13:47:48.927Z,72576
2019-04-30T13:48:51.326Z,69344
2019-04-30T13:49:53.430Z,68000
2019-04-30T13:50:55.587Z,68544
2019-04-30T13:51:57.679Z,70784
2019-04-30T13:53:00.192Z,70464
2019-04-30T13:54:02.290Z,67232
2019-04-30T13:55:04.789Z,63456
2019-04-30T13:56:08.662Z,64480
2019-04-30T13:57:10.936Z,66240
2019-04-30T13:58:13.041Z,65024
2019-04-30T13:59:15.433Z,62784
2019-04-30T14:00:18.566Z,60064
2019-04-30T14:01:21.382Z,60800
2019-04-30T14:02:23.667Z,60640
2019-04-30T14:03:25.818Z,60544
2019-04-30T14:04:27.924Z,56480
2019-04-30T14:05:30.014Z,55712
2019-04-30T14:06:32.123Z,54848
2019-04-30T14:07:34.235Z,43936
2019-04-30T14:08:38.655Z,53152
2019-04-30T14:09:40.958Z,48736
2019-04-30T14:10:43.345Z,44160
2019-04-30T14:11:45.449Z,47552
2019-04-30T14:12:47.568Z,42976
2019-04-30T14:13:49.731Z,40992
2019-04-30T14:14:51.833Z,60448
2019-04-30T14:15:53.992Z,58752
2019-04-30T14:16:56.377Z,47808
2019-04-30T14:18:02.766Z,33760
2019-04-30T14:19:04.941Z,44448
2019-04-30T14:20:07.043Z,54560
2019-04-30T14:21:09.375Z,36768
2019-04-30T14:22:11.593Z,25856
2019-04-30T14:23:13.744Z,26304
2019-04-30T14:24:16.177Z,35616
2019-04-30T14:25:20.368Z,28576
2019-04-30T14:26:22.501Z,32544
2019-04-30T14:27:24.612Z,34336